createdAt,value
2022-12-15T00:02:17.811Z,78.28
2022-12-15T00:05:03.119Z,77.99
2022-12-15T00:07:48.291Z,77.90
2022-12-15T00:10:33.496Z,78.23
2022-12-15T00:13:18.773Z,77.42
2022-12-15T00:16:05.754Z,77.42
2022-12-15T00:18:51.058Z,77.45
2022-12-15T00:21:36.257Z,77.55
2022-12-15T00:24:21.576Z,78.04
2022-12-15T00:27:06.687Z,77.34
2022-12-15T00:29:51.951Z,77.79
2022-12-15T00:32:38.552Z,77.47
2022-12-15T00:35:24.201Z,77.68
2022-12-15T00:38:09.591Z,77.72
2022-12-15T00:40:38.354Z,77.45
2022-12-15T00:43:06.013Z,77.67
2022-12-15T00:45:47.399Z,77.84
2022-12-15T00:48:16.221Z,76.92
2022-12-15T00:50:53.351Z,76.42
2022-12-15T00:53:38.299Z,76.23
2022-12-15T00:56:23.731Z,76.44
2022-12-15T00:59:08.968Z,76.45
2022-12-15T01:01:54.208Z,76.72
2022-12-15T01:04:40.293Z,76.80
2022-12-15T01:07:25.419Z,76.64
2022-12-15T01:10:10.611Z,76.72
2022-12-15T01:12:55.731Z,76.77
2022-12-15T01:15:41.153Z,77.05
2022-12-15T01:18:26.458Z,76.98
2022-12-15T01:20:58.671Z,78.31
2022-12-15T01:23:26.449Z,78.50
2022-12-15T01:25:54.527Z,78.18
2022-12-15T01:28:22.708Z,78.75
2022-12-15T01:30:50.411Z,78.60
2022-12-15T01:33:18.710Z,78.24
2022-12-15T01:35:46.458Z,79.02
2022-12-15T01:38:15.259Z,79.54
2022-12-15T01:40:52.167Z,80.86
2022-12-15T01:43:22.275Z,80.38
2022-12-15T01:46:02.408Z,80.24
2022-12-15T01:48:35.167Z,79.87
2022-12-15T01:51:11.180Z,79.46
2022-12-15T01:53:43.195Z,79.49
2022-12-15T01:56:12.221Z,79.67
2022-12-15T01:58:42.947Z,79.81
2022-12-15T02:01:10.992Z,79.17
2022-12-15T02:03:38.988Z,78.69
2022-12-15T02:06:07.353Z,78.84
2022-12-15T02:08:34.903Z,78.71
2022-12-15T02:11:37.991Z,78.56
2022-12-15T02:14:09.031Z,78.45
2022-12-15T02:16:58.362Z,78.55
2022-12-15T02:19:46.182Z,79.02
2022-12-15T02:22:24.094Z,80.14
2022-12-15T02:25:11.391Z,80.56
2022-12-15T02:27:49.330Z,80.21
2022-12-15T02:30:30.169Z,79.63
2022-12-15T02:33:04.105Z,79.48
2022-12-15T02:35:36.439Z,80.15
2022-12-15T02:38:04.157Z,79.88
2022-12-15T02:40:31.606Z,80.00
2022-12-15T02:43:01.182Z,79.81
2022-12-15T02:45:34.478Z,79.91
2022-12-15T02:48:13.670Z,80.09
2022-12-15T02:50:53.093Z,80.22
2022-12-15T02:53:35.768Z,80.11
2022-12-15T02:56:08.703Z,80.36
2022-12-15T02:58:40.419Z,80.10
2022-12-15T03:01:14.186Z,80.30
2022-12-15T03:03:42.296Z,80.40
2022-12-15T03:06:10.116Z,80.40
2022-12-15T03:08:37.591Z,80.62
2022-12-15T03:11:05.221Z,80.05
2022-12-15T03:13:33.176Z,79.86
2022-12-15T03:16:01.421Z,79.60
2022-12-15T03:18:30.242Z,80.08
2022-12-15T03:20:57.704Z,80.14
2022-12-15T03:23:25.311Z,80.36
2022-12-15T03:25:52.852Z,80.40
2022-12-15T03:28:20.319Z,80.45
2022-12-15T03:30:50.218Z,80.35
2022-12-15T03:33:18.753Z,80.01
2022-12-15T03:35:47.723Z,79.64
2022-12-15T03:38:15.261Z,79.96
2022-12-15T03:40:43.209Z,79.56
2022-12-15T03:43:10.679Z,79.51
2022-12-15T03:45:38.171Z,79.62
2022-12-15T03:48:05.756Z,79.07
2022-12-15T03:50:33.204Z,79.50
2022-12-15T03:53:03.331Z,79.44
2022-12-15T03:55:31.298Z,79.68
2022-12-15T03:57:59.432Z,80.07
2022-12-15T04:00:27.606Z,80.09
2022-12-15T04:02:55.211Z,79.96
2022-12-15T04:05:25.897Z,80.69
2022-12-15T04:07:53.697Z,81.32
2022-12-15T04:10:23.954Z,81.46
2022-12-15T04:12:57.898Z,81.48
2022-12-15T04:15:25.637Z,82.35
2022-12-15T04:17:53.666Z,82.49
2022-12-15T04:20:21.339Z,82.92
2022-12-15T04:22:50.115Z,83.02
2022-12-15T04:25:36.842Z,83.43
2022-12-15T04:28:23.395Z,83.70
2022-12-15T04:31:10.751Z,84.18
2022-12-15T04:33:58.469Z,83.99
2022-12-15T04:36:47.706Z,83.55
2022-12-15T04:39:32.904Z,84.09
2022-12-15T04:42:19.645Z,83.64
2022-12-15T04:45:06.710Z,83.97
2022-12-15T04:47:52.111Z,84.36
2022-12-15T04:50:37.291Z,84.33
2022-12-15T04:53:26.603Z,83.59
2022-12-15T04:56:17.946Z,84.16
2022-12-15T04:59:03.988Z,84.78
2022-12-15T05:01:50.532Z,85.62
2022-12-15T05:04:35.644Z,85.48
2022-12-15T05:07:20.845Z,85.41
2022-12-15T05:10:10.989Z,84.87
2022-12-15T05:12:59.408Z,85.43
2022-12-15T05:15:44.636Z,85.07
2022-12-15T05:18:31.047Z,85.52
2022-12-15T05:21:16.404Z,86.13
2022-12-15T05:24:01.605Z,86.81
2022-12-15T05:26:52.344Z,87.35
2022-12-15T05:29:38.358Z,87.55
2022-12-15T05:32:05.998Z,87.59
2022-12-15T05:34:36.187Z,87.61
2022-12-15T05:37:05.321Z,87.16
2022-12-15T05:39:32.834Z,87.68
2022-12-15T05:42:00.624Z,88.33
2022-12-15T05:44:29.263Z,88.81
2022-12-15T05:46:56.713Z,89.62
2022-12-15T05:49:24.187Z,88.55
2022-12-15T05:51:53.660Z,89.05
2022-12-15T05:54:21.295Z,89.27
2022-12-15T05:56:50.401Z,89.64
2022-12-15T05:59:18.871Z,89.03
2022-12-15T06:01:46.454Z,88.91
2022-12-15T06:04:15.034Z,88.75
2022-12-15T06:06:42.905Z,89.03
2022-12-15T06:09:11.792Z,88.89
2022-12-15T06:11:39.226Z,88.22
2022-12-15T06:14:06.791Z,88.65
2022-12-15T06:16:38.288Z,88.32
2022-12-15T06:19:08.838Z,88.40
2022-12-15T06:21:37.116Z,88.23
2022-12-15T06:24:05.709Z,88.02
2022-12-15T06:26:36.254Z,88.35
2022-12-15T06:29:07.526Z,88.87
2022-12-15T06:31:35.211Z,89.35
2022-12-15T06:34:05.233Z,89.16
2022-12-15T06:36:32.738Z,89.02
2022-12-15T06:39:01.368Z,88.74
2022-12-15T06:41:30.193Z,89.16
2022-12-15T06:43:59.634Z,88.82
2022-12-15T06:46:28.231Z,89.05
2022-12-15T06:48:55.854Z,88.95
2022-12-15T06:51:23.405Z,89.11
2022-12-15T06:53:53.744Z,89.19
2022-12-15T06:56:28.913Z,89.32
2022-12-15T06:59:01.497Z,89.13
2022-12-15T07:01:29.179Z,88.99
2022-12-15T07:03:57.413Z,89.15
2022-12-15T07:06:25.030Z,89.33
2022-12-15T07:08:56.297Z,89.64
2022-12-15T07:11:23.792Z,89.96
2022-12-15T07:13:52.099Z,90.14
2022-12-15T07:16:22.180Z,90.30
2022-12-15T07:18:49.781Z,90.37
2022-12-15T07:21:17.477Z,90.05
2022-12-15T07:23:54.862Z,89.61
2022-12-15T07:26:24.406Z,90.03
2022-12-15T07:28:52.799Z,90.44
2022-12-15T07:31:21.731Z,90.08
2022-12-15T07:33:49.337Z,89.96
2022-12-15T07:36:16.784Z,90.14
2022-12-15T07:38:45.373Z,90.45
2022-12-15T07:41:17.983Z,90.70
2022-12-15T07:43:46.499Z,90.45
2022-12-15T07:46:14.623Z,91.02
2022-12-15T07:48:43.477Z,90.78
2022-12-15T07:51:17.365Z,90.62
2022-12-15T07:53:46.924Z,90.77
2022-12-15T07:56:15.265Z,91.21
2022-12-15T07:58:44.138Z,91.07
2022-12-15T08:01:13.525Z,91.18
2022-12-15T08:03:42.783Z,91.48
2022-12-15T08:06:12.125Z,91.77
2022-12-15T08:08:40.007Z,91.86
2022-12-15T08:11:07.897Z,92.14
2022-12-15T08:14:02.155Z,92.67
2022-12-15T08:16:23.275Z,92.83
2022-12-15T08:18:52.409Z,93.05
2022-12-15T08:21:20.057Z,93.06
2022-12-15T08:23:47.850Z,93.51
2022-12-15T08:26:17.207Z,93.47
2022-12-15T08:28:45.723Z,93.83
2022-12-15T08:31:14.965Z,93.54
2022-12-15T08:33:42.650Z,93.33
2022-12-15T08:36:12.999Z,93.61
2022-12-15T08:38:41.473Z,93.63
2022-12-15T08:41:09.802Z,93.61
2022-12-15T08:43:41.111Z,93.81
2022-12-15T08:46:12.823Z,94.22
2022-12-15T08:48:40.561Z,94.57
2022-12-15T08:51:09.640Z,95.04
2022-12-15T08:53:38.592Z,95.37
2022-12-15T08:56:08.656Z,94.96
2022-12-15T08:58:36.194Z,95.18
2022-12-15T09:01:05.473Z,95.26
2022-12-15T09:03:34.231Z,94.80
2022-12-15T09:06:03.739Z,94.97
2022-12-15T09:08:31.286Z,95.01
2022-12-15T09:11:00.718Z,95.05
2022-12-15T09:13:29.535Z,95.04
2022-12-15T09:16:09.355Z,95.43
2022-12-15T09:18:37.639Z,95.33
2022-12-15T09:21:06.357Z,95.44
2022-12-15T09:23:35.101Z,95.09
2022-12-15T09:26:06.152Z,95.12
2022-12-15T09:28:34.236Z,95.60
2022-12-15T09:31:03.755Z,95.07
2022-12-15T09:33:31.960Z,95.26
2022-12-15T09:35:59.843Z,95.25
2022-12-15T09:38:27.486Z,95.46
2022-12-15T09:40:55.010Z,95.75
2022-12-15T09:43:34.751Z,95.79
2022-12-15T09:46:07.194Z,95.86
2022-12-15T09:48:39.502Z,95.84
2022-12-15T09:51:10.902Z,95.82
2022-12-15T09:53:54.645Z,96.22
2022-12-15T09:56:28.385Z,95.69
2022-12-15T09:59:01.903Z,95.74
2022-12-15T10:01:34.370Z,95.77
2022-12-15T10:04:07.342Z,96.05
2022-12-15T10:06:37.343Z,95.76
2022-12-15T10:09:13.256Z,96.35
2022-12-15T10:14:40.769Z,96.41
2022-12-15T10:17:18.015Z,96.59
2022-12-15T10:19:50.743Z,96.27
2022-12-15T10:22:22.592Z,96.57
2022-12-15T10:28:00.510Z,96.48
2022-12-15T10:30:29.543Z,97.07
2022-12-15T10:33:02.715Z,97.20
2022-12-15T10:35:32.718Z,97.20
2022-12-15T10:38:01.303Z,96.74
2022-12-15T10:40:50.364Z,96.84
2022-12-15T10:43:26.529Z,96.95
2022-12-15T10:46:04.960Z,97.02
2022-12-15T10:48:32.571Z,97.16
2022-12-15T10:51:15.471Z,96.65
2022-12-15T10:53:44.997Z,96.83
2022-12-15T10:56:24.820Z,96.77
2022-12-15T10:58:58.136Z,96.88
2022-12-15T11:01:28.781Z,97.41
2022-12-15T11:03:57.050Z,96.80
2022-12-15T11:06:26.189Z,97.21
2022-12-15T11:08:55.211Z,97.32
2022-12-15T11:11:46.247Z,97.17
2022-12-15T11:14:17.760Z,97.28
2022-12-15T11:16:53.528Z,96.84
2022-12-15T11:19:30.762Z,96.81
2022-12-15T11:22:01.179Z,96.64
2022-12-15T11:24:35.633Z,96.77
2022-12-15T11:27:07.372Z,96.65
2022-12-15T11:29:45.309Z,97.07
2022-12-15T11:32:20.689Z,96.39
2022-12-15T11:34:48.786Z,96.64
2022-12-15T11:37:39.446Z,97.30
2022-12-15T11:40:28.237Z,97.29
2022-12-15T11:43:18.343Z,97.48
2022-12-15T11:45:55.389Z,97.47
2022-12-15T11:48:32.353Z,97.56
2022-12-15T11:51:01.251Z,97.33
2022-12-15T11:53:45.195Z,97.26
2022-12-15T11:56:19.058Z,97.23
2022-12-15T11:58:55.364Z,97.30
2022-12-15T12:01:37.631Z,97.10
2022-12-15T12:04:13.156Z,97.35
2022-12-15T12:06:44.883Z,97.95
2022-12-15T12:09:24.126Z,97.88
2022-12-15T12:11:55.169Z,98.27
2022-12-15T12:14:31.903Z,98.03
2022-12-15T12:17:05.535Z,97.84
2022-12-15T12:19:39.114Z,97.87
2022-12-15T12:22:13.481Z,98.17
2022-12-15T12:24:42.876Z,97.96
2022-12-15T12:27:13.803Z,98.14
2022-12-15T12:29:45.528Z,98.28
2022-12-15T12:32:20.186Z,98.70
2022-12-15T12:35:30.598Z,98.52
2022-12-15T12:37:46.705Z,98.42
2022-12-15T12:40:21.156Z,98.57
2022-12-15T12:42:54.371Z,98.69
2022-12-15T12:45:24.643Z,98.66
2022-12-15T12:47:53.922Z,98.58
2022-12-15T12:50:24.862Z,98.96
2022-12-15T12:52:54.240Z,98.97
2022-12-15T12:55:27.063Z,98.48
2022-12-15T12:57:54.906Z,98.33
2022-12-15T13:00:24.741Z,98.63
2022-12-15T13:03:18.083Z,98.36
2022-12-15T13:05:50.578Z,98.17
2022-12-15T13:08:46.557Z,97.91
2022-12-15T13:11:55.280Z,97.93
2022-12-15T13:14:31.416Z,97.62
2022-12-15T13:20:26.760Z,97.76
2022-12-15T13:22:57.356Z,97.40
2022-12-15T13:25:38.570Z,97.55
2022-12-15T13:28:28.127Z,97.83
2022-12-15T13:31:30.287Z,97.45
2022-12-15T13:34:07.141Z,97.22
2022-12-15T13:36:55.019Z,97.33
2022-12-15T13:39:57.138Z,96.96
2022-12-15T13:42:38.868Z,96.96
2022-12-15T13:45:44.873Z,96.81
2022-12-15T13:48:25.486Z,96.86
2022-12-15T13:50:57.552Z,97.11
2022-12-15T13:53:27.915Z,96.75
2022-12-15T13:56:04.763Z,96.55
2022-12-15T13:58:34.947Z,96.40
2022-12-15T14:01:05.049Z,96.08
2022-12-15T14:03:33.176Z,96.12
2022-12-15T14:06:01.192Z,96.52
2022-12-15T14:08:30.211Z,96.43
2022-12-15T14:11:06.948Z,95.81
2022-12-15T14:13:47.937Z,95.71
2022-12-15T14:16:21.917Z,95.72
2022-12-15T14:19:04.779Z,96.15
2022-12-15T14:21:32.299Z,95.61
2022-12-15T14:26:50.552Z,96.29
2022-12-15T14:29:18.731Z,95.85
2022-12-15T14:31:50.728Z,95.92
2022-12-15T14:34:24.519Z,96.05
2022-12-15T14:36:52.586Z,96.34
2022-12-15T14:39:24.385Z,96.37
2022-12-15T14:41:55.083Z,96.22
2022-12-15T14:44:31.536Z,95.75
2022-12-15T14:47:07.576Z,96.21
2022-12-15T14:49:41.158Z,96.04
2022-12-15T14:52:18.570Z,95.82
2022-12-15T14:54:52.711Z,96.21
2022-12-15T14:57:24.886Z,95.96
2022-12-15T14:59:53.192Z,95.87
2022-12-15T15:02:23.018Z,96.11
2022-12-15T15:03:03.795Z,96.03
2022-12-15T15:04:59.712Z,95.93
2022-12-15T15:07:29.376Z,96.02
2022-12-15T15:09:57.085Z,95.98
2022-12-15T15:12:28.866Z,96.23
2022-12-15T15:15:01.093Z,96.27
2022-12-15T15:17:33.748Z,96.21
2022-12-15T15:20:02.240Z,96.47
2022-12-15T15:22:37.175Z,96.66
2022-12-15T15:25:31.568Z,96.35
2022-12-15T15:28:14.958Z,96.77
2022-12-15T15:30:44.676Z,96.84
2022-12-15T15:33:13.368Z,96.30
2022-12-15T15:35:42.072Z,96.75
2022-12-15T15:38:18.561Z,96.37
2022-12-15T15:40:52.942Z,96.91
2022-12-15T15:43:22.151Z,96.76
2022-12-15T15:45:50.303Z,96.48
2022-12-15T15:48:20.187Z,96.48
2022-12-15T15:50:47.722Z,96.52
2022-12-15T15:53:18.922Z,96.46
2022-12-15T15:55:47.964Z,96.34
2022-12-15T15:58:15.547Z,96.56
2022-12-15T16:00:45.464Z,96.54
2022-12-15T16:03:13.232Z,96.65
2022-12-15T16:05:41.725Z,97.00
2022-12-15T16:08:11.863Z,96.48
2022-12-15T16:10:39.344Z,96.83
2022-12-15T16:13:07.077Z,96.57
2022-12-15T16:15:34.619Z,96.44
2022-12-15T16:18:03.474Z,96.75
2022-12-15T16:20:31.220Z,96.37
2022-12-15T16:23:00.894Z,96.74
2022-12-15T16:25:42.422Z,96.48
2022-12-15T16:28:15.767Z,96.56
2022-12-15T16:30:43.975Z,96.66
2022-12-15T16:33:13.310Z,96.20
2022-12-15T16:35:41.543Z,96.63
2022-12-15T16:38:15.077Z,96.81
2022-12-15T16:40:42.642Z,97.06
2022-12-15T16:43:14.192Z,96.94
2022-12-15T16:45:43.704Z,96.91
2022-12-15T16:48:12.708Z,96.58
2022-12-15T16:50:42.037Z,97.13
2022-12-15T16:53:15.340Z,97.01
2022-12-15T16:55:42.931Z,96.46
2022-12-15T16:58:14.874Z,96.01
2022-12-15T17:00:42.864Z,96.34
2022-12-15T17:03:15.033Z,96.65
2022-12-15T17:05:45.104Z,96.13
2022-12-15T17:08:17.601Z,96.22
2022-12-15T17:10:45.253Z,96.04
2022-12-15T17:13:20.644Z,95.87
2022-12-15T17:15:48.205Z,96.25
2022-12-15T17:18:17.025Z,96.25
2022-12-15T17:20:44.493Z,96.15
2022-12-15T17:23:15.049Z,96.28
2022-12-15T17:26:19.580Z,96.02
2022-12-15T17:28:33.355Z,95.75
2022-12-15T17:31:03.017Z,95.90
2022-12-15T17:33:35.715Z,95.92
2022-12-15T17:36:09.322Z,96.32
2022-12-15T17:38:36.965Z,96.27
2022-12-15T17:41:04.500Z,95.73
2022-12-15T17:43:35.666Z,95.92
2022-12-15T17:46:03.735Z,95.76
2022-12-15T17:48:32.650Z,96.03
2022-12-15T17:51:00.123Z,95.83
2022-12-15T17:53:27.648Z,95.76
2022-12-15T17:55:55.292Z,95.92
2022-12-15T17:58:24.671Z,95.83
2022-12-15T18:00:53.527Z,95.78
2022-12-15T18:03:21.827Z,96.05
2022-12-15T18:05:52.057Z,95.96
2022-12-15T18:08:21.598Z,96.49
2022-12-15T18:10:51.110Z,96.70
2022-12-15T18:13:20.333Z,96.61
2022-12-15T18:15:48.666Z,96.69
2022-12-15T18:18:16.710Z,96.45
2022-12-15T18:20:44.474Z,96.71
2022-12-15T18:23:17.434Z,96.21
2022-12-15T18:25:45.271Z,96.50
2022-12-15T18:28:19.994Z,96.19
2022-12-15T18:30:48.338Z,95.49
2022-12-15T18:33:15.824Z,95.33
2022-12-15T18:35:44.918Z,96.32
2022-12-15T18:38:17.163Z,96.38
2022-12-15T18:40:46.224Z,96.84
2022-12-15T18:43:16.194Z,96.67
2022-12-15T18:45:44.132Z,96.42
2022-12-15T18:48:17.304Z,95.97
2022-12-15T18:50:45.356Z,95.85
2022-12-15T18:53:19.330Z,95.94
2022-12-15T18:55:47.446Z,95.88
2022-12-15T18:58:24.359Z,95.77
2022-12-15T19:00:52.448Z,95.42
2022-12-15T19:03:20.305Z,95.14
2022-12-15T19:05:48.350Z,95.15
2022-12-15T19:08:20.089Z,95.37
2022-12-15T19:10:51.129Z,95.10
2022-12-15T19:13:20.615Z,95.41
2022-12-15T19:15:48.211Z,96.11
2022-12-15T19:18:34.138Z,95.98
2022-12-15T19:21:19.434Z,95.80
2022-12-15T19:23:48.623Z,95.67
2022-12-15T19:26:16.120Z,95.35
2022-12-15T19:28:43.591Z,96.41
2022-12-15T19:31:11.215Z,95.72
2022-12-15T19:33:39.794Z,95.22
2022-12-15T19:36:12.212Z,95.78
2022-12-15T19:38:39.699Z,95.47
2022-12-15T19:41:10.280Z,95.75
2022-12-15T19:43:38.074Z,95.58
2022-12-15T19:46:05.854Z,95.93
2022-12-15T19:48:33.316Z,95.94
2022-12-15T19:51:00.760Z,95.24
2022-12-15T19:53:30.130Z,94.99
2022-12-15T19:55:59.490Z,94.64
2022-12-15T19:58:29.888Z,95.57
2022-12-15T20:00:59.325Z,94.17
2022-12-15T20:03:27.518Z,94.63
2022-12-15T20:05:56.356Z,95.45
2022-12-15T20:08:25.714Z,95.29
2022-12-15T20:10:54.651Z,94.68
2022-12-15T20:13:22.610Z,95.05
2022-12-15T20:15:51.634Z,95.37
2022-12-15T20:18:19.802Z,95.65
2022-12-15T20:20:48.423Z,94.85
2022-12-15T20:23:18.393Z,94.87
2022-12-15T20:25:45.926Z,94.79
2022-12-15T20:28:23.283Z,94.92
2022-12-15T20:30:52.199Z,95.45
2022-12-15T20:33:21.044Z,95.39
2022-12-15T20:35:49.477Z,95.54
2022-12-15T20:38:29.337Z,93.99
2022-12-15T20:40:57.342Z,93.47
2022-12-15T20:43:25.746Z,93.11
2022-12-15T20:46:03.104Z,94.00
2022-12-15T20:48:30.981Z,94.12
2022-12-15T20:50:59.532Z,94.55
2022-12-15T20:53:29.841Z,94.22
2022-12-15T20:55:57.694Z,94.87
2022-12-15T20:58:32.603Z,95.09
2022-12-15T21:01:01.882Z,95.43
2022-12-15T21:03:31.830Z,95.71
2022-12-15T21:06:00.392Z,95.60
2022-12-15T21:08:29.590Z,95.69
2022-12-15T21:11:03.564Z,96.00
2022-12-15T21:13:32.719Z,95.54
2022-12-15T21:16:02.975Z,94.50
2022-12-15T21:21:20.847Z,94.88
2022-12-15T21:23:49.014Z,95.67
2022-12-15T21:26:20.370Z,95.55
2022-12-15T21:28:48.598Z,94.95
2022-12-15T21:31:18.758Z,95.13
2022-12-15T21:33:46.491Z,94.70
2022-12-15T21:36:14.589Z,93.58
2022-12-15T21:38:42.846Z,93.28
2022-12-15T21:41:14.171Z,93.77
2022-12-15T21:43:41.649Z,94.25
2022-12-15T21:46:14.613Z,92.69
2022-12-15T21:49:03.494Z,92.18
2022-12-15T21:51:34.832Z,90.84
2022-12-15T21:54:04.236Z,90.08
2022-12-15T21:56:31.834Z,90.29
2022-12-15T21:58:59.612Z,90.25
2022-12-15T22:01:30.054Z,90.05
2022-12-15T22:03:59.835Z,90.77
2022-12-15T22:06:29.599Z,90.20
2022-12-15T22:08:59.331Z,89.97
2022-12-15T22:11:28.707Z,89.70
2022-12-15T22:13:57.432Z,89.81
2022-12-15T22:16:25.151Z,88.82
2022-12-15T22:18:54.999Z,89.22
2022-12-15T22:21:24.126Z,89.32
2022-12-15T22:23:52.006Z,89.50
2022-12-15T22:26:22.258Z,89.62
2022-12-15T22:28:50.635Z,90.26
2022-12-15T22:31:18.577Z,90.01
2022-12-15T22:33:46.152Z,89.81
2022-12-15T22:36:13.690Z,89.39
2022-12-15T22:38:42.570Z,89.38
2022-12-15T22:41:18.268Z,88.87
2022-12-15T22:43:46.977Z,88.82
2022-12-15T22:46:15.504Z,88.91
2022-12-15T22:48:45.269Z,88.51
2022-12-15T22:51:14.351Z,89.37
2022-12-15T22:53:43.269Z,88.97
2022-12-15T22:56:21.606Z,89.71
2022-12-15T22:58:51.922Z,90.67
2022-12-15T23:01:19.680Z,90.08
2022-12-15T23:03:47.373Z,89.44
2022-12-15T23:06:14.913Z,90.48
2022-12-15T23:08:43.675Z,89.38
2022-12-15T23:11:28.983Z,89.79
2022-12-15T23:13:56.475Z,88.70
2022-12-15T23:16:23.142Z,89.00
2022-12-15T23:18:52.884Z,88.84
2022-12-15T23:21:23.509Z,88.91
2022-12-15T23:23:52.739Z,88.65
2022-12-15T23:26:22.470Z,87.22
2022-12-15T23:28:50.190Z,88.47
2022-12-15T23:31:18.378Z,87.99
2022-12-15T23:33:46.007Z,88.62
2022-12-15T23:36:13.885Z,88.44
2022-12-15T23:38:41.499Z,88.17
2022-12-15T23:41:15.835Z,88.24
2022-12-15T23:43:43.583Z,88.70
2022-12-15T23:46:11.236Z,88.48
2022-12-15T23:48:42.737Z,88.62
2022-12-15T23:51:12.279Z,88.85
2022-12-15T23:53:40.849Z,88.17
2022-12-15T23:56:12.039Z,87.96
2022-12-15T23:58:40.365Z,88.19
